Logan, Minnesota
Current Conditions -  °F | °C
As of 5:53 PM on Saturday 25 Oct 2014 (Local Time) from KAIT Reporting Station
Clear Clear  
Wind Chill: 57°   Ceiling: Unl
Heat Index: 57°   Visibility: 10mi
Dew Point: 16°   Wind: 6mph
Humidity: 20%   Direction: 280°W
Pressure: 30"   Gusts: NA
Location:  46.7281°N, 93.6101°W
Report Text: KAIT 252253Z AUTO 28005KT 10SM CLR 14/M09 A3000 RMK AO2
Loading
Personal Weather Stations






























Interactive Weather Map New forecast layout! Learn more

10-Day Weather Forecast

Advertisements
Track Severe Weather on mobile